PWSweather.com
Personal Weather Stations
Station Observations
PEISSEN1
PeissenbergDE

PeissenbergDE

Lat: 47.791845, Lon: 11.064121

Elevation: 1929

Station Type: Davis Vantage Pro 2

Latest ConditionsUpdated 2:20:00 PM GMT+01:01 Thursday, Nov 14, 2019
Currently Today's Max Today's Min Today's Average
Temperature 39.6°F4.2°C 40.3°F4.6°C 21.4°F-5.9°C 28.5°F-1.9°C
Dew Point 34.2°F1.2°C 34.9°F1.6°C 19.2°F-7.1°C 25.6°F-3.6°C
Winds Calm Calm 2.9 mph -4.7 kmh - - 0.3 mph 0.5 kmh
Wind Gusts -- 5.0 mph8.0 kmh - -
Humidity 81% 94% 80% 89%
Pressure 29.66 in1004.4 mb 29.76 in1007.8 mb 29.66 in1004.4 mb -
Hour Temp Dew Point Humidity Winds Wind Gusts Pressure Precip Precip Rate Daily Precip Total
02:20 PM 39.6°F4.2°C 34.2°F1.2°C 81% Calm Calm -- 29.66 in1004.4 mb 0.00 in0.0 mm 0.00 in0.0 mm 0.00 in0.0 mm
02:10 PM 39.7°F4.3°C 34.7°F1.5°C 82% Calm Calm -- 29.66 in1004.4 mb 0.00 in0.0 mm 0.00 in0.0 mm 0.00 in0.0 mm
02:00 PM 40.3°F4.6°C 34.9°F1.6°C 81% Calm Calm -- 29.66 in1004.4 mb 0.00 in0.0 mm 0.00 in0.0 mm 0.00 in0.0 mm
12:20 PM 38.1°F3.4°C 32.5°F0.3°C 80% 1.6 mph NNE2.6 kmh NNE 2.0 mph3.2 kmh 29.68 in1005.1 mb 0.00 in0.0 mm 0.00 in0.0 mm 0.00 in0.0 mm
12:10 PM 37.6°F3.1°C 32.0°F0.0°C 80% 2.9 mph NNE4.7 kmh NNE 5.0 mph8.0 kmh 29.68 in1005.1 mb 0.00 in0.0 mm 0.00 in0.0 mm 0.00 in0.0 mm
12:00 PM 36.7°F2.6°C 31.4°F-0.3°C 81% 2.3 mph N3.7 kmh N 4.0 mph6.4 kmh 29.69 in1005.4 mb 0.00 in0.0 mm 0.00 in0.0 mm 0.00 in0.0 mm
10:20 AM 28.9°F-1.7°C 27.4°F-2.6°C 94% Calm Calm -- 29.71 in1006.1 mb 0.00 in0.0 mm 0.00 in0.0 mm 0.00 in0.0 mm
10:10 AM 28.6°F-1.9°C 27.1°F-2.7°C 94% Calm Calm -- 29.71 in1006.1 mb 0.00 in0.0 mm 0.00 in0.0 mm 0.00 in0.0 mm
10:00 AM 28.0°F-2.2°C 26.5°F-3.1°C 94% Calm Calm -- 29.71 in1006.1 mb 0.00 in0.0 mm 0.00 in0.0 mm 0.00 in0.0 mm
08:20 AM 21.4°F-5.9°C 19.4°F-7.0°C 92% Calm Calm -- 29.68 in1005.1 mb 0.00 in0.0 mm 0.00 in0.0 mm 0.00 in0.0 mm
08:10 AM 21.4°F-5.9°C 19.4°F-7.0°C 92% Calm Calm -- 29.67 in1004.7 mb 0.00 in0.0 mm 0.00 in0.0 mm 0.00 in0.0 mm
08:00 AM 21.4°F-5.9°C 19.2°F-7.1°C 91% Calm Calm -- 29.67 in1004.7 mb 0.00 in0.0 mm 0.00 in0.0 mm 0.00 in0.0 mm
06:20 AM 22.1°F-5.5°C 19.9°F-6.7°C 91% Calm Calm -- 29.67 in1004.7 mb 0.00 in0.0 mm 0.00 in0.0 mm 0.00 in0.0 mm
06:10 AM 22.3°F-5.4°C 20.1°F-6.6°C 91% Calm Calm -- 29.67 in1004.7 mb 0.00 in0.0 mm 0.00 in0.0 mm 0.00 in0.0 mm
06:00 AM 22.3°F-5.4°C 20.1°F-6.6°C 91% Calm Calm -- 29.67 in1004.7 mb 0.00 in0.0 mm 0.00 in0.0 mm 0.00 in0.0 mm
04:20 AM 24.1°F-4.4°C 22.1°F-5.5°C 92% Calm Calm -- 29.68 in1005.1 mb 0.00 in0.0 mm 0.00 in0.0 mm 0.00 in0.0 mm
04:10 AM 24.3°F-4.3°C 22.3°F-5.4°C 92% Calm Calm -- 29.69 in1005.4 mb 0.00 in0.0 mm 0.00 in0.0 mm 0.00 in0.0 mm
04:00 AM 24.4°F-4.2°C 22.5°F-5.3°C 92% Calm Calm -- 29.69 in1005.4 mb 0.00 in0.0 mm 0.00 in0.0 mm 0.00 in0.0 mm
02:20 AM 25.5°F-3.6°C 23.5°F-4.7°C 92% Calm Calm -- 29.71 in1006.1 mb 0.00 in0.0 mm 0.00 in0.0 mm 0.00 in0.0 mm
02:10 AM 25.9°F-3.4°C 23.9°F-4.5°C 92% Calm Calm -- 29.72 in1006.4 mb 0.00 in0.0 mm 0.00 in0.0 mm 0.00 in0.0 mm
02:00 AM 26.1°F-3.3°C 24.1°F-4.4°C 92% Calm Calm -- 29.72 in1006.4 mb 0.00 in0.0 mm 0.00 in0.0 mm 0.00 in0.0 mm
12:20 AM 27.9°F-2.3°C 25.8°F-3.4°C 92% Calm Calm -- 29.76 in1007.8 mb 0.00 in0.0 mm 0.00 in0.0 mm 0.12 in3.0 mm
12:10 AM 28.0°F-2.2°C 26.0°F-3.3°C 92% Calm Calm -- 29.76 in1007.8 mb 0.00 in0.0 mm 0.00 in0.0 mm 0.12 in3.0 mm
12:00 AM 28.2°F-2.1°C 26.2°F-3.2°C 92% Calm Calm -- 29.76 in1007.8 mb 0.00 in0.0 mm 0.00 in0.0 mm 0.12 in3.0 mm